Time;durP1;ratioP1;P1;durP2;ratioP2;P2;SDS_P1;SDS_P2;PMS_P1;PMS_P2;Temp;Humidity;BMP_temperature;BMP_pressure;BME280_temperature;BME280_humidity;BME280_pressure;Samples;Min_cycle;Max_cycle;Signal;HPM_P1;HPM_P2
2021/04/25 00:01:43;;;;;;;8.87;3.27;;;;;;;3.79;100.00;101850.09;4920654;28;20237;-76
2021/04/25 00:04:09;;;;;;;4.83;2.90;;;;;;;3.64;100.00;101844.84;4921826;29;20290;-75
2021/04/25 00:06:36;;;;;;;7.67;3.07;;;;;;;3.63;100.00;101835.16;4953502;28;20307;-75
2021/04/25 00:09:04;;;;;;;6.90;3.10;;;;;;;3.53;100.00;101845.41;4935999;29;20183;-75
2021/04/25 00:11:32;;;;;;;5.17;2.87;;;;;;;3.63;100.00;101837.84;4933827;29;20232;-75
2021/04/25 00:14:00;;;;;;;6.90;3.03;;;;;;;3.57;100.00;101835.09;4933528;29;20712;-75
2021/04/25 00:16:31;;;;;;;8.37;3.17;;;;;;;3.76;100.00;101845.16;4935454;28;20232;-75
2021/04/25 00:19:04;;;;;;;9.40;3.23;;;;;;;3.67;100.00;101843.66;4934413;29;20271;-75
2021/04/25 00:21:34;;;;;;;7.50;3.00;;;;;;;3.57;100.00;101838.66;4918302;29;20416;-75
2021/04/25 00:24:03;;;;;;;5.70;2.80;;;;;;;3.46;100.00;101838.34;4933438;29;20219;-75
2021/04/25 00:26:31;;;;;;;10.03;3.33;;;;;;;3.43;100.00;101837.94;4902747;29;20227;-75
2021/04/25 00:28:59;;;;;;;5.83;3.00;;;;;;;3.34;100.00;101826.50;4927392;29;20199;-75
2021/04/25 00:31:28;;;;;;;6.30;3.00;;;;;;;3.37;100.00;101827.97;4952847;28;20231;-75
2021/04/25 00:33:58;;;;;;;8.20;2.83;;;;;;;3.43;100.00;101831.53;4952754;28;20207;-75
2021/04/25 00:36:26;;;;;;;7.60;3.30;;;;;;;3.40;100.00;101832.94;4952852;28;20225;-74
2021/04/25 00:38:54;;;;;;;6.03;3.07;;;;;;;3.30;100.00;101827.13;4953468;28;20198;-75
2021/04/25 00:41:22;;;;;;;7.00;3.23;;;;;;;3.15;100.00;101826.38;4936760;28;20227;-75
2021/04/25 00:43:50;;;;;;;6.93;3.03;;;;;;;3.27;100.00;101816.75;4952678;29;20210;-75
2021/04/25 00:46:15;;;;;;;9.33;3.13;;;;;;;3.20;100.00;101832.00;4936311;29;20246;-74
2021/04/25 00:48:41;;;;;;;5.30;2.80;;;;;;;3.14;100.00;101822.03;4937481;29;20222;-73
2021/04/25 00:51:09;;;;;;;8.30;3.17;;;;;;;3.13;100.00;101820.38;4952680;28;20290;-75
2021/04/25 00:53:34;;;;;;;7.43;2.90;;;;;;;3.13;100.00;101825.75;4952495;28;20214;-75
2021/04/25 00:56:00;;;;;;;8.70;3.23;;;;;;;3.05;100.00;101822.41;4952508;28;20230;-76
2021/04/25 00:58:25;;;;;;;5.77;2.97;;;;;;;3.09;100.00;101824.47;4952595;29;20182;-75
2021/04/25 01:00:57;;;;;;;5.77;2.90;;;;;;;3.16;100.00;101815.44;4952440;28;20223;-75
2021/04/25 01:03:23;;;;;;;7.10;2.80;;;;;;;2.97;100.00;101823.38;4935895;29;20716;-75
2021/04/25 01:05:50;;;;;;;9.13;3.20;;;;;;;3.01;100.00;101816.59;4968151;28;20226;-74
2021/04/25 01:08:18;;;;;;;8.63;3.17;;;;;;;2.99;100.00;101818.63;4952594;28;20198;-75
2021/04/25 01:10:43;;;;;;;7.40;3.10;;;;;;;2.99;100.00;101818.63;4936708;28;20224;-75
2021/04/25 01:13:09;;;;;;;8.57;2.90;;;;;;;2.88;100.00;101821.84;4901236;29;20226;-75
2021/04/25 01:15:34;;;;;;;7.87;2.87;;;;;;;2.86;100.00;101817.72;4917130;29;20231;-75
2021/04/25 01:18:05;;;;;;;7.13;2.90;;;;;;;2.77;100.00;101825.06;4946538;29;20295;-74
2021/04/25 01:20:32;;;;;;;6.73;2.93;;;;;;;2.76;100.00;101817.19;4952207;28;20228;-74
2021/04/25 01:23:05;;;;;;;6.10;2.73;;;;;;;2.64;100.00;101813.41;4951924;29;20207;-74
2021/04/25 01:25:33;;;;;;;6.37;2.97;;;;;;;2.67;100.00;101819.22;4936785;29;20249;-74
2021/04/25 01:27:59;;;;;;;5.70;2.90;;;;;;;2.82;100.00;101819.09;4952333;29;20700;-75
2021/04/25 01:30:27;;;;;;;7.60;3.07;;;;;;;2.73;100.00;101813.06;4937268;28;20202;-74
2021/04/25 01:32:52;;;;;;;7.13;2.67;;;;;;;2.65;100.00;101819.59;4969228;28;20190;-74
2021/04/25 01:35:21;;;;;;;5.63;2.83;;;;;;;2.60;100.00;101812.13;4970938;28;20241;-75
2021/04/25 01:37:56;;;;;;;5.97;2.53;;;;;;;2.61;100.00;101811.09;4955587;28;20263;-75
2021/04/25 01:40:25;;;;;;;7.50;2.90;;;;;;;2.59;100.00;101820.34;4953708;28;20194;-74
2021/04/25 01:42:53;;;;;;;6.43;3.17;;;;;;;2.65;100.00;101816.91;4942561;29;20281;-75
2021/04/25 01:45:19;;;;;;;7.13;3.10;;;;;;;2.72;100.00;101819.44;4939021;28;20195;-75
2021/04/25 01:47:48;;;;;;;4.87;2.97;;;;;;;2.59;100.00;101821.19;4954719;29;20219;-74
2021/04/25 01:50:15;;;;;;;5.57;2.73;;;;;;;2.58;100.00;101813.31;4937569;28;20234;-76
2021/04/25 01:52:43;;;;;;;8.87;3.20;;;;;;;2.47;100.00;101821.88;4951978;28;20207;-75
2021/04/25 01:55:13;;;;;;;5.37;2.90;;;;;;;2.67;100.00;101827.25;4937253;28;20613;-74
2021/04/25 01:57:41;;;;;;;9.53;2.87;;;;;;;2.77;100.00;101825.06;4952152;29;20187;-74
2021/04/25 02:00:11;;;;;;;9.07;2.87;;;;;;;2.58;100.00;101824.06;4936517;29;20198;-74
2021/04/25 02:02:41;;;;;;;7.30;2.70;;;;;;;2.53;100.00;101821.13;4936063;29;20234;-75
2021/04/25 02:05:12;;;;;;;6.63;3.00;;;;;;;2.52;100.00;101831.00;4951806;28;20190;-74
2021/04/25 02:07:40;;;;;;;4.30;2.83;;;;;;;2.31;100.00;101825.66;4935969;29;20226;-74
2021/04/25 02:10:06;;;;;;;4.80;2.67;;;;;;;2.42;100.00;101818.97;4936281;29;20282;-74
2021/04/25 02:12:32;;;;;;;8.03;3.03;;;;;;;2.45;100.00;101829.28;4933194;29;20364;-75
2021/04/25 02:15:00;;;;;;;6.43;2.70;;;;;;;2.43;100.00;101825.97;4934644;29;20684;-75
2021/04/25 02:17:28;;;;;;;10.13;2.97;;;;;;;2.29;100.00;101816.97;4917695;29;20224;-75
2021/04/25 02:19:54;;;;;;;8.17;3.20;;;;;;;2.26;100.00;101824.56;4919162;29;20176;-75
2021/04/25 02:22:20;;;;;;;9.87;3.13;;;;;;;2.12;100.00;101822.75;4952194;29;20233;-75
2021/04/25 02:24:48;;;;;;;6.83;2.63;;;;;;;2.15;100.00;101827.75;4948083;28;20214;-74
2021/04/25 02:27:16;;;;;;;5.67;2.80;;;;;;;2.02;100.00;101822.22;4961071;28;20243;-75
2021/04/25 02:29:41;;;;;;;5.83;2.70;;;;;;;2.00;100.00;101824.28;4945348;29;20295;-74
2021/04/25 02:32:10;;;;;;;6.07;2.97;;;;;;;2.05;100.00;101827.22;4944672;29;20766;-74
2021/04/25 02:34:38;;;;;;;4.17;2.87;;;;;;;1.96;100.00;101822.19;4943295;29;20196;-74
2021/04/25 02:37:03;;;;;;;8.07;2.73;;;;;;;1.87;100.00;101822.44;4937228;28;20227;-73
2021/04/25 02:39:31;;;;;;;8.57;2.70;;;;;;;1.75;100.00;101823.97;4934401;29;20192;-75
2021/04/25 02:41:59;;;;;;;6.33;3.00;;;;;;;1.79;100.00;101819.88;4901876;29;20255;-74
2021/04/25 02:44:24;;;;;;;5.50;2.83;;;;;;;2.00;100.00;101818.91;4917955;29;20571;-75
2021/04/25 02:46:50;;;;;;;5.73;3.10;;;;;;;1.92;100.00;101816.38;4917371;29;20242;-74
2021/04/25 02:49:16;;;;;;;8.27;2.90;;;;;;;1.88;100.00;101818.78;4902405;29;20192;-75
2021/04/25 02:51:41;;;;;;;6.73;3.20;;;;;;;1.86;100.00;101810.91;4944699;28;20234;-74
2021/04/25 02:54:07;;;;;;;5.90;2.67;;;;;;;1.85;100.00;101813.78;4936202;29;20215;-75
2021/04/25 02:56:33;;;;;;;8.33;2.90;;;;;;;1.80;100.00;101821.56;4951514;28;20222;-74
2021/04/25 02:59:01;;;;;;;6.47;3.00;;;;;;;1.75;100.00;101810.56;4936309;29;20209;-74
2021/04/25 03:01:26;;;;;;;7.97;3.47;;;;;;;1.74;100.00;101820.47;4935847;28;20238;-75
2021/04/25 03:03:54;;;;;;;4.63;2.90;;;;;;;1.61;100.00;101822.13;4955181;28;20624;-74
2021/04/25 03:06:19;;;;;;;6.57;2.67;;;;;;;1.60;100.00;101825.84;4936601;29;20271;-73
2021/04/25 03:08:48;;;;;;;7.07;2.70;;;;;;;1.65;100.00;101823.44;4936786;29;20635;-75
2021/04/25 03:11:16;;;;;;;6.33;2.83;;;;;;;1.62;100.00;101823.78;4960317;28;20227;-75
2021/04/25 03:13:43;;;;;;;4.73;3.10;;;;;;;1.92;100.00;101811.00;4939079;29;20207;-73
2021/04/25 03:16:16;;;;;;;10.30;3.17;;;;;;;2.03;100.00;101813.19;4954695;29;20287;-73
2021/04/25 03:18:42;;;;;;;10.13;3.30;;;;;;;1.93;100.00;101811.84;4954997;28;20262;-74
2021/04/25 03:21:08;;;;;;;7.90;3.20;;;;;;;1.87;100.00;101811.75;4938518;28;20237;-74
2021/04/25 03:23:33;;;;;;;5.83;3.07;;;;;;;2.06;100.00;101809.28;4938430;29;20210;-73
2021/04/25 03:25:59;;;;;;;5.53;2.80;;;;;;;1.91;100.00;101818.41;4938484;29;20223;-74
2021/04/25 03:28:24;;;;;;;6.10;3.10;;;;;;;1.87;100.00;101811.75;4939407;29;20673;-74
2021/04/25 03:30:54;;;;;;;6.50;3.10;;;;;;;1.85;100.00;101816.44;4955595;28;20238;-73
2021/04/25 03:33:20;;;;;;;5.87;3.00;;;;;;;1.94;100.00;101814.31;4954000;29;20236;-74
2021/04/25 03:35:48;;;;;;;5.30;3.03;;;;;;;1.81;100.00;101809.81;4938726;29;20588;-74
2021/04/25 03:38:17;;;;;;;6.57;3.17;;;;;;;2.02;100.00;101806.16;4939745;29;20918;-74
2021/04/25 03:40:43;;;;;;;4.70;2.77;;;;;;;1.84;100.00;101820.16;4923808;29;20297;-74
2021/04/25 03:43:10;;;;;;;7.30;3.10;;;;;;;1.70;100.00;101821.81;4924894;29;20211;-74
2021/04/25 03:45:36;;;;;;;4.47;2.70;;;;;;;1.73;100.00;101817.97;4941400;29;20230;-73
2021/04/25 03:48:02;;;;;;;5.37;2.80;;;;;;;1.62;100.00;101823.78;4941437;29;20219;-74
2021/04/25 03:50:30;;;;;;;5.23;2.70;;;;;;;1.34;100.00;101804.06;4926366;28;20237;-74
2021/04/25 03:52:58;;;;;;;6.90;2.53;;;;;;;1.41;100.00;101815.69;4939562;29;20712;-74
2021/04/25 03:55:26;;;;;;;5.40;2.80;;;;;;;1.50;100.00;101816.41;4938564;28;20227;-74
2021/04/25 03:57:52;;;;;;;7.23;2.97;;;;;;;1.65;100.00;101810.06;4971121;28;20722;-73
2021/04/25 04:00:18;;;;;;;6.20;2.83;;;;;;;1.68;100.00;101806.97;4955716;28;20191;-74
2021/04/25 04:02:44;;;;;;;7.03;3.10;;;;;;;1.80;100.00;101809.00;4922193;29;20210;-74
2021/04/25 04:05:14;;;;;;;4.97;2.77;;;;;;;1.62;100.00;101807.72;4923109;28;20221;-73
2021/04/25 04:07:44;;;;;;;5.33;2.83;;;;;;;1.59;100.00;101808.94;4954333;28;20246;-74
2021/04/25 04:10:10;;;;;;;5.43;2.67;;;;;;;1.86;100.00;101820.81;4954053;28;20660;-74
2021/04/25 04:12:36;;;;;;;8.97;4.13;;;;;;;1.79;100.00;101810.00;4937346;29;20207;-75
2021/04/25 04:15:05;;;;;;;6.20;3.07;;;;;;;2.05;100.00;101808.47;4953737;28;20179;-75
2021/04/25 04:17:33;;;;;;;6.97;3.10;;;;;;;2.24;100.00;101799.00;4954381;29;20211;-74
2021/04/25 04:19:59;;;;;;;7.97;3.10;;;;;;;2.45;100.00;101802.47;4970013;28;20570;-74
2021/04/25 04:22:25;;;;;;;5.83;3.20;;;;;;;2.63;100.00;101808.22;4952784;28;20227;-74
2021/04/25 04:24:56;;;;;;;6.70;2.97;;;;;;;2.69;100.00;101811.78;4939019;29;20716;-74
2021/04/25 04:27:22;;;;;;;7.70;3.00;;;;;;;2.80;100.00;101819.31;4953131;28;20270;-74
2021/04/25 04:29:50;;;;;;;4.93;2.70;;;;;;;2.85;99.71;101822.22;4936884;29;20273;-75
2021/04/25 04:32:18;;;;;;;6.47;2.93;;;;;;;3.22;98.34;101817.38;4968717;28;20227;-75
2021/04/25 04:34:44;;;;;;;6.10;2.73;;;;;;;3.45;97.25;101810.69;4938200;29;20203;-74
2021/04/25 04:37:14;;;;;;;4.97;2.67;;;;;;;3.41;96.30;101813.13;4953955;28;20215;-75
2021/04/25 04:39:42;;;;;;;6.80;3.33;;;;;;;3.40;96.95;101814.16;4969667;28;20187;-74
2021/04/25 04:42:07;;;;;;;5.43;2.73;;;;;;;3.29;97.21;101810.16;4968663;28;20230;-74
2021/04/25 04:44:33;;;;;;;9.40;3.10;;;;;;;3.45;97.04;101813.38;4969657;28;20183;-75
2021/04/25 04:46:58;;;;;;;6.63;3.23;;;;;;;3.33;96.69;101815.97;4950882;28;20712;-75
2021/04/25 04:49:27;;;;;;;7.93;3.23;;;;;;;3.44;98.05;101805.50;4922156;29;20254;-74
2021/04/25 04:51:53;;;;;;;7.10;3.10;;;;;;;3.63;96.71;101807.47;4924662;29;20251;-73
2021/04/25 04:54:18;;;;;;;5.67;2.77;;;;;;;3.74;95.84;101809.59;4934324;29;20214;-73
2021/04/25 04:56:44;;;;;;;7.57;3.90;;;;;;;3.43;97.13;101807.38;4934072;29;20215;-74
2021/04/25 04:59:12;;;;;;;7.10;3.63;;;;;;;3.49;97.51;101806.56;4935267;29;20324;-75
2021/04/25 05:01:42;;;;;;;6.70;3.20;;;;;;;3.44;97.91;101803.66;4934087;28;20227;-75
2021/04/25 05:04:08;;;;;;;7.23;3.23;;;;;;;3.29;98.78;101812.03;4937681;28;20207;-74
2021/04/25 05:06:36;;;;;;;5.17;2.93;;;;;;;3.64;98.17;101804.56;4952419;28;20820;-74
2021/04/25 05:09:07;;;;;;;6.03;3.20;;;;;;;3.72;97.37;101812.47;4906940;29;20191;-75
2021/04/25 05:11:33;;;;;;;7.83;2.90;;;;;;;3.61;97.66;101815.72;4949047;28;20215;-74
2021/04/25 05:14:03;;;;;;;6.10;3.30;;;;;;;3.79;97.34;101813.34;4918286;29;20239;-75
2021/04/25 05:16:29;;;;;;;4.47;3.00;;;;;;;3.99;96.65;101816.91;4918664;29;20223;-75
2021/04/25 05:18:57;;;;;;;4.43;2.73;;;;;;;4.35;94.91;101811.00;4903475;29;20192;-73
2021/04/25 05:21:27;;;;;;;5.93;2.80;;;;;;;4.30;94.25;101808.13;4918277;29;20227;-74
2021/04/25 05:23:56;;;;;;;6.43;3.20;;;;;;;4.22;94.51;101800.22;4918426;29;20290;-74
2021/04/25 05:26:22;;;;;;;5.53;2.90;;;;;;;4.25;95.35;101810.59;4951763;28;20239;-73
2021/04/25 05:28:50;;;;;;;6.93;3.10;;;;;;;4.23;95.22;101795.69;4953643;29;20665;-76
2021/04/25 05:31:18;;;;;;;4.83;2.80;;;;;;;4.42;94.65;101801.09;4952741;28;20253;-73
2021/04/25 05:33:46;;;;;;;6.03;3.63;;;;;;;4.48;93.79;101808.34;4952695;28;20206;-74
2021/04/25 05:36:14;;;;;;;7.20;3.40;;;;;;;4.51;94.39;101809.81;4921661;29;20226;-74
2021/04/25 05:38:40;;;;;;;6.73;3.30;;;;;;;4.65;93.65;101806.91;4936839;29;20183;-73
2021/04/25 05:41:05;;;;;;;6.30;3.00;;;;;;;4.75;93.96;101810.88;4936466;28;20231;-74
2021/04/25 05:43:31;;;;;;;12.43;5.83;;;;;;;5.09;92.92;101811.50;4951576;28;20242;-75
2021/04/25 05:45:59;;;;;;;13.63;7.90;;;;;;;5.45;91.00;101817.22;4936321;29;20222;-73
2021/04/25 05:48:27;;;;;;;7.07;4.60;;;;;;;5.86;89.21;101814.00;4969821;28;20554;-75
2021/04/25 05:50:53;;;;;;;6.80;3.10;;;;;;;6.12;88.00;101819.28;4952263;28;20222;-74
2021/04/25 05:53:19;;;;;;;7.60;2.87;;;;;;;6.21;86.74;101815.31;4952108;28;20207;-75
2021/04/25 05:55:45;;;;;;;8.20;2.80;;;;;;;6.46;85.16;101813.47;4952544;28;20261;-73
2021/04/25 05:58:13;;;;;;;5.83;2.87;;;;;;;6.51;84.93;101811.78;4952515;29;20179;-75
2021/04/25 06:00:40;;;;;;;7.50;2.43;;;;;;;6.12;82.31;101816.59;4952231;28;20227;-74
2021/04/25 06:03:07;;;;;;;5.27;2.10;;;;;;;6.14;82.87;101814.50;4935822;29;20219;-75
2021/04/25 06:05:32;;;;;;;3.97;1.90;;;;;;;5.98;84.54;101808.78;4952118;28;20289;-74
2021/04/25 06:08:03;;;;;;;4.47;2.10;;;;;;;6.30;82.29;101804.03;4951940;28;20215;-73
2021/04/25 06:10:28;;;;;;;3.87;1.83;;;;;;;6.14;81.91;101803.72;4935843;28;20809;-75
2021/04/25 06:12:56;;;;;;;5.37;2.50;;;;;;;6.33;81.06;101814.38;4948147;28;20235;-74
2021/04/25 06:15:26;;;;;;;5.67;1.90;;;;;;;6.14;81.55;101814.50;4932485;28;20239;-76
2021/04/25 06:17:59;;;;;;;5.83;1.87;;;;;;;6.10;80.89;101817.81;4932690;29;20243;-74
2021/04/25 06:20:24;;;;;;;5.13;1.60;;;;;;;6.10;80.70;101824.06;4932168;28;20222;-73
2021/04/25 06:22:50;;;;;;;4.63;1.60;;;;;;;6.10;80.14;101829.47;4931949;29;20195;-75
2021/04/25 06:25:16;;;;;;;4.53;1.70;;;;;;;6.26;80.15;101820.84;4932749;28;20207;-76
2021/04/25 06:27:44;;;;;;;3.73;1.47;;;;;;;6.12;79.00;101821.97;4917217;29;20652;-74
2021/04/25 06:30:11;;;;;;;5.17;1.67;;;;;;;6.00;79.78;101823.69;4946516;28;20231;-74
2021/04/25 06:32:41;;;;;;;5.80;1.83;;;;;;;6.05;80.45;101823.06;4929343;29;20231;-75
2021/04/25 06:35:11;;;;;;;5.27;1.77;;;;;;;6.23;80.22;101829.41;4924948;28;20225;-74
2021/04/25 06:37:36;;;;;;;3.20;1.70;;;;;;;6.41;78.39;101833.03;4916910;29;20184;-74
2021/04/25 06:40:08;;;;;;;3.63;1.80;;;;;;;6.53;77.31;101829.41;4936381;29;20246;-75
2021/04/25 06:42:39;;;;;;;4.17;1.70;;;;;;;6.64;77.43;101828.72;4908529;29;20229;-74
2021/04/25 06:45:10;;;;;;;3.03;1.57;;;;;;;6.68;75.75;101829.91;4941269;28;20298;-75
2021/04/25 06:47:38;;;;;;;3.33;1.53;;;;;;;6.60;74.32;101835.59;4939242;28;20221;-74
2021/04/25 06:50:05;;;;;;;4.43;1.40;;;;;;;6.41;75.31;101822.25;4937351;29;20192;-74
2021/04/25 06:52:31;;;;;;;3.37;1.50;;;;;;;6.41;75.65;101842.97;4951606;28;20655;-74
2021/04/25 06:54:57;;;;;;;3.50;1.60;;;;;;;6.47;75.88;101848.34;4952853;28;20204;-75
2021/04/25 06:57:27;;;;;;;4.77;1.63;;;;;;;6.60;74.88;101837.47;4946366;29;20226;-76
2021/04/25 06:59:53;;;;;;;4.77;1.70;;;;;;;6.60;74.71;101845.56;4938029;29;20571;-75
2021/04/25 07:02:19;;;;;;;2.20;1.80;;;;;;;6.58;74.83;101845.78;4920103;28;20227;-75
2021/04/25 07:04:44;;;;;;;4.47;1.70;;;;;;;6.54;75.10;101851.84;4937290;29;20212;-76
2021/04/25 07:07:12;;;;;;;3.70;1.70;;;;;;;6.71;74.74;101855.66;4937632;28;20235;-75
2021/04/25 07:09:43;;;;;;;2.97;1.70;;;;;;;6.73;75.59;101857.09;4922668;29;21067;-75
2021/04/25 07:12:09;;;;;;;6.30;2.03;;;;;;;6.82;74.96;101853.09;4944483;28;20262;-74
2021/04/25 07:14:37;;;;;;;3.70;1.93;;;;;;;6.91;75.21;101847.19;4949125;29;20572;-76
2021/04/25 07:17:05;;;;;;;3.83;1.70;;;;;;;6.89;75.30;101853.88;4954387;28;20314;-75
2021/04/25 07:19:33;;;;;;;3.70;2.03;;;;;;;6.99;75.67;101848.78;4939192;29;20850;-73
2021/04/25 07:22:01;;;;;;;8.13;2.20;;;;;;;7.25;73.96;101853.97;4955120;28;20317;-75
2021/04/25 07:24:29;;;;;;;3.70;1.57;;;;;;;7.41;73.57;101854.25;4956863;28;20210;-75
2021/04/25 07:26:55;;;;;;;3.73;1.70;;;;;;;7.54;73.37;101849.53;4955253;28;20837;-75
2021/04/25 07:29:23;;;;;;;4.37;2.03;;;;;;;7.10;72.53;101850.78;4955668;29;20215;-75
2021/04/25 07:31:49;;;;;;;2.57;1.50;;;;;;;7.30;73.07;101847.69;4936218;28;20230;-74
2021/04/25 07:34:17;;;;;;;4.17;1.70;;;;;;;7.51;71.68;101850.00;4922897;29;20274;-73
2021/04/25 07:36:43;;;;;;;3.30;1.80;;;;;;;7.55;71.61;101851.19;4938575;29;20262;-73
2021/04/25 07:39:08;;;;;;;5.80;1.50;;;;;;;7.60;69.43;101847.81;4954974;29;20646;-73
2021/04/25 07:41:35;;;;;;;3.27;1.60;;;;;;;7.46;69.24;101847.13;4944797;28;20561;-77
2021/04/25 07:44:01;;;;;;;3.03;1.50;;;;;;;7.68;67.74;101851.06;4950996;29;20245;-75
2021/04/25 07:46:31;;;;;;;2.60;1.50;;;;;;;7.57;67.60;101843.69;4951152;28;20265;-75
2021/04/25 07:48:57;;;;;;;4.23;1.70;;;;;;;7.73;66.57;101845.81;4951320;28;20250;-75
2021/04/25 07:51:32;;;;;;;3.73;1.60;;;;;;;7.76;66.96;101842.63;4946405;28;20698;-77
2021/04/25 07:53:59;;;;;;;4.03;1.40;;;;;;;8.03;65.31;101841.28;4914840;29;20208;-75
2021/04/25 07:56:27;;;;;;;2.70;1.40;;;;;;;7.97;62.98;101850.31;4939092;29;20228;-73
2021/04/25 07:59:01;;;;;;;2.10;1.20;;;;;;;8.16;60.84;101845.50;4941115;29;20184;-75
2021/04/25 08:01:27;;;;;;;3.07;1.40;;;;;;;8.20;59.13;101846.69;4937827;28;20231;-75
2021/04/25 08:03:53;;;;;;;3.37;1.23;;;;;;;8.13;61.81;101850.53;4938814;29;20274;-74
2021/04/25 08:06:21;;;;;;;3.77;1.30;;;;;;;8.06;60.76;101849.78;4941265;29;20716;-76
2021/04/25 08:08:52;;;;;;;2.53;1.40;;;;;;;8.04;59.10;101858.13;4957882;28;20187;-75
2021/04/25 08:11:18;;;;;;;3.03;1.10;;;;;;;8.21;58.92;101861.06;4971423;28;20790;-74
2021/04/25 08:13:46;;;;;;;3.00;1.33;;;;;;;8.32;57.65;101868.44;4938283;29;20210;-75
2021/04/25 08:16:14;;;;;;;2.23;1.27;;;;;;;8.66;58.00;101868.56;4936640;29;20219;-75
2021/04/25 08:18:42;;;;;;;1.90;0.87;;;;;;;8.79;51.59;101857.53;4939400;29;20190;-75
2021/04/25 08:21:10;;;;;;;1.67;0.70;;;;;;;8.87;51.32;101872.41;4923106;29;20258;-76
2021/04/25 08:23:36;;;;;;;1.33;0.87;;;;;;;8.72;50.00;101859.50;4953023;29;20305;-75
2021/04/25 08:26:06;;;;;;;3.77;1.17;;;;;;;8.80;52.21;101870.84;4920249;29;20224;-75
2021/04/25 08:28:31;;;;;;;1.73;0.77;;;;;;;8.87;47.56;101872.41;4934807;28;20191;-75
2021/04/25 08:31:00;;;;;;;0.93;0.60;;;;;;;8.83;46.55;101876.63;4933489;28;20242;-76
2021/04/25 08:33:28;;;;;;;1.40;0.70;;;;;;;8.69;45.60;101879.75;4934189;29;20203;-75
2021/04/25 08:35:58;;;;;;;1.33;0.60;;;;;;;8.77;47.84;101875.91;4933095;28;20251;-76
2021/04/25 08:38:31;;;;;;;1.73;0.83;;;;;;;8.96;46.43;101881.84;4933863;29;20198;-75
2021/04/25 08:40:58;;;;;;;1.93;0.90;;;;;;;9.22;46.86;101887.66;4933499;29;20247;-74
2021/04/25 08:43:26;;;;;;;1.90;0.93;;;;;;;8.95;47.67;101880.19;4948787;28;20226;-76
2021/04/25 08:45:52;;;;;;;2.13;0.90;;;;;;;9.18;47.40;101877.53;4917456;29;20238;-77
2021/04/25 08:48:32;;;;;;;1.83;1.03;;;;;;;9.51;47.27;101875.09;4936039;29;20219;-76
2021/04/25 08:51:09;;;;;;;1.63;0.90;;;;;;;9.83;45.65;101867.16;4932295;29;20231;-75
2021/04/25 08:53:35;;;;;;;1.07;0.90;;;;;;;9.74;45.32;101876.75;4942949;29;20215;-72
2021/04/25 08:56:03;;;;;;;2.47;1.00;;;;;;;9.61;45.12;101889.72;4948767;28;20564;-75
2021/04/25 08:58:29;;;;;;;2.60;1.20;;;;;;;9.95;43.34;101876.16;4952746;29;20194;-74
2021/04/25 09:00:54;;;;;;;2.73;1.23;;;;;;;10.05;43.33;101879.94;4951277;28;20697;-73
2021/04/25 09:03:20;;;;;;;3.20;1.37;;;;;;;10.28;42.01;101879.88;4919746;29;20227;-74
2021/04/25 09:05:46;;;;;;;1.83;0.90;;;;;;;10.23;43.23;101870.78;4952483;28;20230;-74
2021/04/25 09:08:12;;;;;;;1.23;1.13;;;;;;;10.20;41.12;101876.69;4953599;29;20223;-75
2021/04/25 09:10:39;;;;;;;3.60;1.13;;;;;;;10.33;40.64;101885.41;4934833;29;20226;-75
2021/04/25 09:13:20;;;;;;;1.50;1.00;;;;;;;10.09;40.39;101886.53;4947673;29;20697;-74
2021/04/25 09:15:49;;;;;;;1.80;0.87;;;;;;;9.70;41.23;101882.88;4912265;29;20234;-74
2021/04/25 09:18:17;;;;;;;1.20;0.90;;;;;;;9.25;41.29;101881.78;4951578;28;20743;-75
2021/04/25 09:20:47;;;;;;;2.07;0.90;;;;;;;9.67;41.23;101881.47;4934406;29;20226;-75
2021/04/25 09:23:29;;;;;;;4.43;1.07;;;;;;;10.13;41.55;101881.44;4939705;29;20207;-74
2021/04/25 09:26:04;;;;;;;2.00;0.90;;;;;;;10.02;39.17;101895.88;4936449;28;21064;-74
2021/04/25 09:28:29;;;;;;;1.97;0.73;;;;;;;10.23;39.33;101876.22;4953451;29;20628;-75
2021/04/25 09:31:04;;;;;;;1.97;1.00;;;;;;;10.37;38.84;101890.09;4952063;28;20729;-75
2021/04/25 09:33:55;;;;;;;1.10;0.83;;;;;;;9.71;39.01;101882.63;4950029;29;20579;-75
2021/04/25 09:36:24;;;;;;;2.53;0.70;;;;;;;9.76;39.02;101884.63;4932817;29;20238;-76
2021/04/25 09:39:07;;;;;;;0.87;0.73;;;;;;;9.81;39.96;101888.28;4920399;29;20191;-75
2021/04/25 09:41:35;;;;;;;1.73;0.90;;;;;;;10.13;39.80;101884.16;4938886;28;20269;-73
2021/04/25 09:44:02;;;;;;;2.50;0.70;;;;;;;10.27;39.52;101878.19;4924440;29;20218;-79
2021/04/25 09:46:52;;;;;;;2.33;0.70;;;;;;;10.86;38.46;101865.81;4962771;29;20238;-76
2021/04/25 09:49:37;;;;;;;1.80;0.90;;;;;;;10.75;37.50;101871.31;4967480;28;20209;-75
2021/04/25 09:52:03;;;;;;;2.23;0.90;;;;;;;10.70;38.06;101873.09;4970651;28;20254;-75
2021/04/25 09:54:28;;;;;;;1.50;0.80;;;;;;;10.40;38.34;101869.78;4954511;29;20231;-75
2021/04/25 09:56:54;;;;;;;1.03;0.80;;;;;;;9.91;38.08;101875.00;4948483;29;20214;-74
2021/04/25 09:59:20;;;;;;;1.87;0.90;;;;;;;10.17;39.59;101877.19;4970057;29;20179;-76
2021/04/25 10:01:45;;;;;;;1.47;0.90;;;;;;;10.29;39.28;101869.81;4974140;28;20230;-77
2021/04/25 10:04:35;;;;;;;2.33;0.87;;;;;;;10.76;36.72;101872.94;4941082;29;20219;-76
2021/04/25 10:07:01;;;;;;;1.37;0.80;;;;;;;10.68;37.58;101865.19;4970175;28;20235;-75
2021/04/25 10:09:28;;;;;;;1.57;0.90;;;;;;;11.27;38.10;101855.38;4954974;29;20571;-77
2021/04/25 10:11:57;;;;;;;1.00;0.73;;;;;;;10.38;37.90;101863.75;4954677;28;20227;-76
2021/04/25 10:14:26;;;;;;;1.30;0.73;;;;;;;10.75;38.30;101865.88;4923960;29;20219;-75
2021/04/25 10:16:57;;;;;;;1.23;0.70;;;;;;;11.16;36.62;101869.06;4938112;28;20239;-73
2021/04/25 10:19:25;;;;;;;2.07;0.80;;;;;;;11.41;37.31;101858.56;4939029;29;20274;-77
2021/04/25 10:21:56;;;;;;;1.10;0.70;;;;;;;11.80;35.43;101861.13;4941089;29;20257;-76
2021/04/25 10:24:22;;;;;;;1.27;0.70;;;;;;;11.58;35.20;101862.97;4952174;29;20203;-76
2021/04/25 10:26:51;;;;;;;1.17;0.70;;;;;;;11.21;34.11;101872.69;4948880;28;20247;-76
2021/04/25 10:29:29;;;;;;;1.37;0.50;;;;;;;11.16;35.05;101864.44;4936349;29;20187;-77
2021/04/25 10:31:58;;;;;;;5.07;2.60;;;;;;;11.48;33.36;101862.81;4919644;29;20321;-77
2021/04/25 10:34:25;;;;;;;2.20;1.10;;;;;;;11.25;34.11;101862.13;4912008;29;20293;-77
2021/04/25 10:36:51;;;;;;;1.97;0.90;;;;;;;11.70;32.99;101869.97;4950142;28;20435;-77
2021/04/25 10:39:38;;;;;;;0.63;0.60;;;;;;;11.97;33.41;101868.16;4967857;28;20282;-76
2021/04/25 10:42:38;;;;;;;1.60;0.70;;;;;;;12.52;32.19;101866.97;4966025;28;20343;-75
2021/04/25 10:45:02;;;;;;;0.53;0.40;;;;;;;11.62;32.85;101875.00;4950780;29;20211;-75
2021/04/25 10:47:36;;;;;;;0.40;0.40;;;;;;;11.38;32.24;101867.25;4966339;28;20239;-73
2021/04/25 10:50:17;;;;;;;2.03;0.60;;;;;;;11.38;31.45;101865.34;4935101;29;20202;-71
2021/04/25 10:52:47;;;;;;;0.80;0.60;;;;;;;11.90;32.62;101869.41;4965867;28;20309;-72
2021/04/25 10:55:28;;;;;;;1.07;0.50;;;;;;;11.32;33.26;101871.78;4947674;28;20598;-74
2021/04/25 10:57:54;;;;;;;0.60;0.60;;;;;;;11.95;32.70;101862.97;4942857;29;20274;-73
2021/04/25 11:00:37;;;;;;;2.20;0.43;;;;;;;11.97;32.42;101868.16;4948089;28;20194;-73
2021/04/25 11:03:10;;;;;;;1.43;0.40;;;;;;;12.55;32.23;101855.56;4944185;29;20577;-72
2021/04/25 11:05:35;;;;;;;0.60;0.60;;;;;;;12.62;31.87;101861.63;4934306;29;20231;-74
2021/04/25 11:08:04;;;;;;;1.03;0.53;;;;;;;12.15;31.34;101865.97;4952103;28;20241;-73
2021/04/25 11:10:44;;;;;;;0.67;0.50;;;;;;;11.28;33.62;101867.91;4926448;28;20321;-73
2021/04/25 11:13:47;;;;;;;0.70;0.40;;;;;;;10.67;34.95;101868.16;4949378;29;20215;-74
2021/04/25 11:16:13;;;;;;;0.77;0.60;;;;;;;10.51;34.71;101869.75;4949381;28;20610;-74
2021/04/25 11:18:50;;;;;;;0.80;0.60;;;;;;;10.68;34.51;101873.34;4951091;29;20230;-73
2021/04/25 11:23:56;;;;;;;1.07;0.50;;;;;;;11.23;33.69;101864.28;4932420;29;20207;-74
2021/04/25 11:26:40;;;;;;;1.93;0.47;;;;;;;11.15;32.22;101861.94;4936031;29;20224;-73
2021/04/25 11:29:29;;;;;;;1.07;0.97;;;;;;;11.55;31.01;101863.47;4935312;29;20226;-73
2021/04/25 11:32:00;;;;;;;1.07;0.60;;;;;;;12.00;30.56;101863.03;4942895;28;20279;-76
2021/04/25 11:34:34;;;;;;;1.67;0.50;;;;;;;12.46;29.78;101852.44;4919909;29;20215;-74
2021/04/25 11:37:10;;;;;;;1.63;0.60;;;;;;;12.05;30.28;101854.09;4949841;28;20222;-74
2021/04/25 11:39:53;;;;;;;1.50;0.60;;;;;;;11.92;31.36;101854.47;4951251;29;20653;-74